sensor_id;sensor_type;location;lat;lon;timestamp;P1;durP1;ratioP1;P2;durP2;ratioP2
56657;SDS011;42530;52.240;19.354;2022-12-18T00:00:43;72.15;;;47.85;;
56657;SDS011;42530;52.240;19.354;2022-12-18T00:03:09;73.88;;;53.47;;
56657;SDS011;42530;52.240;19.354;2022-12-18T00:05:35;75.45;;;56.85;;
56657;SDS011;42530;52.240;19.354;2022-12-18T00:08:01;83.70;;;57.63;;
56657;SDS011;42530;52.240;19.354;2022-12-18T00:10:28;81.18;;;57.40;;
56657;SDS011;42530;52.240;19.354;2022-12-18T00:12:53;80.63;;;58.65;;
56657;SDS011;42530;52.240;19.354;2022-12-18T00:15:19;94.78;;;65.05;;
56657;SDS011;42530;52.240;19.354;2022-12-18T00:17:45;101.93;;;65.90;;
56657;SDS011;42530;52.240;19.354;2022-12-18T00:20:10;98.00;;;67.03;;
56657;SDS011;42530;52.240;19.354;2022-12-18T00:22:36;121.55;;;61.90;;
56657;SDS011;42530;52.240;19.354;2022-12-18T00:25:02;106.07;;;56.85;;
56657;SDS011;42530;52.240;19.354;2022-12-18T00:27:28;116.05;;;58.83;;
56657;SDS011;42530;52.240;19.354;2022-12-18T00:29:53;142.05;;;65.32;;
56657;SDS011;42530;52.240;19.354;2022-12-18T00:32:19;133.25;;;63.33;;
56657;SDS011;42530;52.240;19.354;2022-12-18T00:34:44;166.05;;;73.60;;
56657;SDS011;42530;52.240;19.354;2022-12-18T00:37:10;120.68;;;60.83;;
56657;SDS011;42530;52.240;19.354;2022-12-18T00:39:35;106.97;;;67.30;;
56657;SDS011;42530;52.240;19.354;2022-12-18T00:42:00;155.85;;;71.45;;
56657;SDS011;42530;52.240;19.354;2022-12-18T00:44:44;95.13;;;60.85;;
56657;SDS011;42530;52.240;19.354;2022-12-18T00:47:10;109.40;;;60.08;;
56657;SDS011;42530;52.240;19.354;2022-12-18T00:49:35;106.90;;;66.25;;
56657;SDS011;42530;52.240;19.354;2022-12-18T00:52:00;108.30;;;65.07;;
56657;SDS011;42530;52.240;19.354;2022-12-18T00:54:26;105.35;;;62.83;;
56657;SDS011;42530;52.240;19.354;2022-12-18T00:56:51;100.07;;;58.30;;
56657;SDS011;42530;52.240;19.354;2022-12-18T00:59:17;93.70;;;62.08;;
56657;SDS011;42530;52.240;19.354;2022-12-18T01:01:43;101.45;;;59.75;;
56657;SDS011;42530;52.240;19.354;2022-12-18T01:04:09;103.68;;;63.88;;
56657;SDS011;42530;52.240;19.354;2022-12-18T01:06:35;108.28;;;60.70;;
56657;SDS011;42530;52.240;19.354;2022-12-18T01:09:00;93.65;;;61.83;;
56657;SDS011;42530;52.240;19.354;2022-12-18T01:11:26;95.40;;;65.10;;
56657;SDS011;42530;52.240;19.354;2022-12-18T01:13:53;92.07;;;61.22;;
56657;SDS011;42530;52.240;19.354;2022-12-18T01:16:19;96.68;;;60.15;;
56657;SDS011;42530;52.240;19.354;2022-12-18T01:18:44;86.60;;;60.60;;
56657;SDS011;42530;52.240;19.354;2022-12-18T01:21:15;102.95;;;61.10;;
56657;SDS011;42530;52.240;19.354;2022-12-18T01:23:44;74.28;;;53.70;;
56657;SDS011;42530;52.240;19.354;2022-12-18T01:26:11;93.80;;;62.30;;
56657;SDS011;42530;52.240;19.354;2022-12-18T01:28:41;90.93;;;56.15;;
56657;SDS011;42530;52.240;19.354;2022-12-18T01:31:09;97.75;;;63.00;;
56657;SDS011;42530;52.240;19.354;2022-12-18T01:33:36;81.53;;;55.97;;
56657;SDS011;42530;52.240;19.354;2022-12-18T01:36:01;81.63;;;50.03;;
56657;SDS011;42530;52.240;19.354;2022-12-18T01:38:28;79.53;;;49.58;;
56657;SDS011;42530;52.240;19.354;2022-12-18T01:40:57;78.60;;;48.35;;
56657;SDS011;42530;52.240;19.354;2022-12-18T01:43:40;80.70;;;54.08;;
56657;SDS011;42530;52.240;19.354;2022-12-18T01:46:06;83.30;;;53.90;;
56657;SDS011;42530;52.240;19.354;2022-12-18T01:48:32;79.28;;;51.40;;
56657;SDS011;42530;52.240;19.354;2022-12-18T01:50:58;86.57;;;56.25;;
56657;SDS011;42530;52.240;19.354;2022-12-18T01:53:24;75.32;;;52.30;;
56657;SDS011;42530;52.240;19.354;2022-12-18T01:55:53;81.47;;;55.38;;
56657;SDS011;42530;52.240;19.354;2022-12-18T01:59:06;92.90;;;55.88;;
56657;SDS011;42530;52.240;19.354;2022-12-18T02:01:13;76.22;;;52.67;;
56657;SDS011;42530;52.240;19.354;2022-12-18T02:03:41;75.55;;;55.15;;
56657;SDS011;42530;52.240;19.354;2022-12-18T02:08:48;87.00;;;55.78;;
56657;SDS011;42530;52.240;19.354;2022-12-18T02:19:30;76.90;;;52.28;;
56657;SDS011;42530;52.240;19.354;2022-12-18T02:22:18;72.63;;;52.63;;
56657;SDS011;42530;52.240;19.354;2022-12-18T02:27:41;90.63;;;52.97;;
56657;SDS011;42530;52.240;19.354;2022-12-18T02:30:11;73.93;;;43.70;;
56657;SDS011;42530;52.240;19.354;2022-12-18T02:32:38;71.40;;;49.25;;
56657;SDS011;42530;52.240;19.354;2022-12-18T02:35:06;74.57;;;50.28;;
56657;SDS011;42530;52.240;19.354;2022-12-18T02:37:36;74.45;;;49.80;;
56657;SDS011;42530;52.240;19.354;2022-12-18T02:40:04;81.72;;;52.92;;
56657;SDS011;42530;52.240;19.354;2022-12-18T02:42:31;72.25;;;51.15;;
56657;SDS011;42530;52.240;19.354;2022-12-18T02:44:57;77.55;;;50.72;;
56657;SDS011;42530;52.240;19.354;2022-12-18T02:47:24;75.15;;;51.17;;
56657;SDS011;42530;52.240;19.354;2022-12-18T02:50:02;74.43;;;51.17;;
56657;SDS011;42530;52.240;19.354;2022-12-18T02:55:30;59.47;;;45.53;;
56657;SDS011;42530;52.240;19.354;2022-12-18T03:00:54;76.65;;;48.50;;
56657;SDS011;42530;52.240;19.354;2022-12-18T03:06:29;72.10;;;44.70;;
56657;SDS011;42530;52.240;19.354;2022-12-18T03:08:59;73.93;;;47.97;;
56657;SDS011;42530;52.240;19.354;2022-12-18T03:11:32;69.05;;;48.92;;
56657;SDS011;42530;52.240;19.354;2022-12-18T03:14:20;60.92;;;47.85;;
56657;SDS011;42530;52.240;19.354;2022-12-18T03:16:48;68.50;;;46.10;;
56657;SDS011;42530;52.240;19.354;2022-12-18T03:19:18;77.55;;;55.33;;
56657;SDS011;42530;52.240;19.354;2022-12-18T03:21:47;72.22;;;50.42;;
56657;SDS011;42530;52.240;19.354;2022-12-18T03:24:17;74.80;;;52.28;;
56657;SDS011;42530;52.240;19.354;2022-12-18T03:26:46;76.07;;;50.25;;
56657;SDS011;42530;52.240;19.354;2022-12-18T03:32:12;74.97;;;52.53;;
56657;SDS011;42530;52.240;19.354;2022-12-18T03:34:46;76.97;;;49.95;;
56657;SDS011;42530;52.240;19.354;2022-12-18T03:37:14;65.50;;;50.47;;
56657;SDS011;42530;52.240;19.354;2022-12-18T03:39:40;72.97;;;52.45;;
56657;SDS011;42530;52.240;19.354;2022-12-18T03:42:15;66.65;;;52.13;;
56657;SDS011;42530;52.240;19.354;2022-12-18T03:44:51;68.43;;;51.60;;
56657;SDS011;42530;52.240;19.354;2022-12-18T03:56:00;69.82;;;46.42;;
56657;SDS011;42530;52.240;19.354;2022-12-18T03:58:27;74.15;;;52.90;;
56657;SDS011;42530;52.240;19.354;2022-12-18T04:00:55;69.50;;;47.33;;
56657;SDS011;42530;52.240;19.354;2022-12-18T04:03:24;72.78;;;52.65;;
56657;SDS011;42530;52.240;19.354;2022-12-18T04:05:51;65.43;;;49.60;;
56657;SDS011;42530;52.240;19.354;2022-12-18T04:08:19;67.82;;;46.45;;
56657;SDS011;42530;52.240;19.354;2022-12-18T04:10:46;78.50;;;50.33;;
56657;SDS011;42530;52.240;19.354;2022-12-18T04:13:11;72.03;;;53.88;;
56657;SDS011;42530;52.240;19.354;2022-12-18T04:15:37;67.20;;;47.15;;
56657;SDS011;42530;52.240;19.354;2022-12-18T04:18:03;72.10;;;53.47;;
56657;SDS011;42530;52.240;19.354;2022-12-18T04:20:29;68.93;;;47.30;;
56657;SDS011;42530;52.240;19.354;2022-12-18T04:22:55;63.97;;;49.17;;
56657;SDS011;42530;52.240;19.354;2022-12-18T04:25:20;69.13;;;49.72;;
56657;SDS011;42530;52.240;19.354;2022-12-18T04:27:46;66.93;;;47.75;;
56657;SDS011;42530;52.240;19.354;2022-12-18T04:30:11;66.47;;;48.47;;
56657;SDS011;42530;52.240;19.354;2022-12-18T04:32:37;69.47;;;47.20;;
56657;SDS011;42530;52.240;19.354;2022-12-18T04:35:02;64.55;;;46.88;;
56657;SDS011;42530;52.240;19.354;2022-12-18T04:37:29;72.35;;;50.20;;
56657;SDS011;42530;52.240;19.354;2022-12-18T04:39:55;71.47;;;48.67;;
56657;SDS011;42530;52.240;19.354;2022-12-18T04:42:20;71.63;;;53.03;;
56657;SDS011;42530;52.240;19.354;2022-12-18T04:44:46;66.57;;;48.70;;
56657;SDS011;42530;52.240;19.354;2022-12-18T04:47:12;66.60;;;49.65;;
56657;SDS011;42530;52.240;19.354;2022-12-18T04:49:37;79.97;;;52.67;;
56657;SDS011;42530;52.240;19.354;2022-12-18T04:52:03;78.38;;;50.38;;
56657;SDS011;42530;52.240;19.354;2022-12-18T04:54:29;71.85;;;49.15;;
56657;SDS011;42530;52.240;19.354;2022-12-18T04:56:54;70.03;;;51.35;;
56657;SDS011;42530;52.240;19.354;2022-12-18T04:59:20;72.97;;;48.40;;
56657;SDS011;42530;52.240;19.354;2022-12-18T05:01:45;75.65;;;51.53;;
56657;SDS011;42530;52.240;19.354;2022-12-18T05:04:11;73.18;;;52.17;;
56657;SDS011;42530;52.240;19.354;2022-12-18T05:06:36;74.75;;;56.25;;
56657;SDS011;42530;52.240;19.354;2022-12-18T05:09:01;80.40;;;55.28;;
56657;SDS011;42530;52.240;19.354;2022-12-18T05:11:27;78.45;;;53.58;;
56657;SDS011;42530;52.240;19.354;2022-12-18T05:13:53;75.38;;;52.35;;
56657;SDS011;42530;52.240;19.354;2022-12-18T05:16:18;71.00;;;49.90;;
56657;SDS011;42530;52.240;19.354;2022-12-18T05:18:44;60.33;;;47.63;;
56657;SDS011;42530;52.240;19.354;2022-12-18T05:21:09;71.15;;;49.97;;
56657;SDS011;42530;52.240;19.354;2022-12-18T05:23:35;67.93;;;48.22;;
56657;SDS011;42530;52.240;19.354;2022-12-18T05:26:02;58.25;;;43.28;;
56657;SDS011;42530;52.240;19.354;2022-12-18T05:28:29;65.70;;;49.90;;
56657;SDS011;42530;52.240;19.354;2022-12-18T05:30:58;62.53;;;45.90;;
56657;SDS011;42530;52.240;19.354;2022-12-18T05:33:26;70.07;;;49.13;;
56657;SDS011;42530;52.240;19.354;2022-12-18T05:35:54;70.55;;;49.90;;
56657;SDS011;42530;52.240;19.354;2022-12-18T05:38:22;76.43;;;50.88;;
56657;SDS011;42530;52.240;19.354;2022-12-18T05:40:49;68.07;;;52.58;;
56657;SDS011;42530;52.240;19.354;2022-12-18T05:43:16;65.50;;;51.15;;
56657;SDS011;42530;52.240;19.354;2022-12-18T05:45:42;72.85;;;52.85;;
56657;SDS011;42530;52.240;19.354;2022-12-18T05:48:08;65.63;;;48.75;;
56657;SDS011;42530;52.240;19.354;2022-12-18T05:50:35;64.28;;;47.47;;
56657;SDS011;42530;52.240;19.354;2022-12-18T05:53:01;65.75;;;48.35;;
56657;SDS011;42530;52.240;19.354;2022-12-18T05:55:28;89.75;;;68.97;;
56657;SDS011;42530;52.240;19.354;2022-12-18T05:57:53;68.47;;;57.35;;
56657;SDS011;42530;52.240;19.354;2022-12-18T06:00:19;61.58;;;48.03;;
56657;SDS011;42530;52.240;19.354;2022-12-18T06:02:48;70.75;;;52.30;;
56657;SDS011;42530;52.240;19.354;2022-12-18T06:05:13;58.28;;;44.00;;
56657;SDS011;42530;52.240;19.354;2022-12-18T06:07:39;62.03;;;46.13;;
56657;SDS011;42530;52.240;19.354;2022-12-18T06:10:05;74.55;;;49.88;;
56657;SDS011;42530;52.240;19.354;2022-12-18T06:12:31;70.30;;;49.78;;
56657;SDS011;42530;52.240;19.354;2022-12-18T06:14:59;73.82;;;51.13;;
56657;SDS011;42530;52.240;19.354;2022-12-18T06:17:28;71.28;;;51.03;;
56657;SDS011;42530;52.240;19.354;2022-12-18T06:19:57;76.28;;;50.30;;
56657;SDS011;42530;52.240;19.354;2022-12-18T06:22:23;86.93;;;53.85;;
56657;SDS011;42530;52.240;19.354;2022-12-18T06:24:49;76.20;;;52.05;;
56657;SDS011;42530;52.240;19.354;2022-12-18T06:27:15;84.68;;;54.65;;
56657;SDS011;42530;52.240;19.354;2022-12-18T06:29:41;71.15;;;51.45;;
56657;SDS011;42530;52.240;19.354;2022-12-18T06:32:06;69.25;;;51.78;;
56657;SDS011;42530;52.240;19.354;2022-12-18T06:34:32;78.13;;;54.25;;
56657;SDS011;42530;52.240;19.354;2022-12-18T06:36:58;84.00;;;55.88;;
56657;SDS011;42530;52.240;19.354;2022-12-18T06:39:23;86.88;;;61.17;;
56657;SDS011;42530;52.240;19.354;2022-12-18T06:41:49;76.65;;;52.38;;
56657;SDS011;42530;52.240;19.354;2022-12-18T06:44:18;77.68;;;54.25;;
56657;SDS011;42530;52.240;19.354;2022-12-18T06:46:43;81.00;;;56.42;;
56657;SDS011;42530;52.240;19.354;2022-12-18T06:49:09;75.40;;;59.47;;
56657;SDS011;42530;52.240;19.354;2022-12-18T06:51:34;71.65;;;51.22;;
56657;SDS011;42530;52.240;19.354;2022-12-18T06:54:00;80.53;;;57.63;;
56657;SDS011;42530;52.240;19.354;2022-12-18T06:56:26;69.25;;;48.92;;
56657;SDS011;42530;52.240;19.354;2022-12-18T06:58:53;74.65;;;54.90;;
56657;SDS011;42530;52.240;19.354;2022-12-18T07:01:18;70.90;;;50.40;;
56657;SDS011;42530;52.240;19.354;2022-12-18T07:03:44;77.82;;;52.83;;
56657;SDS011;42530;52.240;19.354;2022-12-18T07:06:14;65.10;;;50.00;;
56657;SDS011;42530;52.240;19.354;2022-12-18T07:08:41;75.15;;;52.28;;
56657;SDS011;42530;52.240;19.354;2022-12-18T07:11:07;67.00;;;46.30;;
56657;SDS011;42530;52.240;19.354;2022-12-18T07:13:32;65.88;;;48.58;;
56657;SDS011;42530;52.240;19.354;2022-12-18T07:16:11;66.05;;;47.53;;
56657;SDS011;42530;52.240;19.354;2022-12-18T07:18:42;72.80;;;44.67;;
56657;SDS011;42530;52.240;19.354;2022-12-18T07:21:10;66.60;;;49.40;;
56657;SDS011;42530;52.240;19.354;2022-12-18T07:23:37;71.07;;;51.80;;
56657;SDS011;42530;52.240;19.354;2022-12-18T07:26:04;73.45;;;53.95;;
56657;SDS011;42530;52.240;19.354;2022-12-18T07:28:35;70.50;;;49.85;;
56657;SDS011;42530;52.240;19.354;2022-12-18T07:31:04;72.50;;;51.80;;
56657;SDS011;42530;52.240;19.354;2022-12-18T07:33:32;87.47;;;57.78;;
56657;SDS011;42530;52.240;19.354;2022-12-18T07:35:59;78.47;;;50.25;;
56657;SDS011;42530;52.240;19.354;2022-12-18T07:38:25;71.53;;;46.55;;
56657;SDS011;42530;52.240;19.354;2022-12-18T07:40:50;80.90;;;59.65;;
56657;SDS011;42530;52.240;19.354;2022-12-18T07:43:16;80.40;;;55.88;;
56657;SDS011;42530;52.240;19.354;2022-12-18T07:45:41;67.40;;;47.83;;
56657;SDS011;42530;52.240;19.354;2022-12-18T07:48:07;73.35;;;48.33;;
56657;SDS011;42530;52.240;19.354;2022-12-18T07:50:33;68.95;;;47.05;;
56657;SDS011;42530;52.240;19.354;2022-12-18T07:52:58;68.88;;;47.58;;
56657;SDS011;42530;52.240;19.354;2022-12-18T07:55:29;70.35;;;48.15;;
56657;SDS011;42530;52.240;19.354;2022-12-18T07:57:55;84.97;;;55.08;;
56657;SDS011;42530;52.240;19.354;2022-12-18T08:00:21;73.18;;;51.95;;
56657;SDS011;42530;52.240;19.354;2022-12-18T08:02:47;73.97;;;49.95;;
56657;SDS011;42530;52.240;19.354;2022-12-18T08:05:12;65.85;;;50.28;;
56657;SDS011;42530;52.240;19.354;2022-12-18T08:07:39;75.35;;;48.97;;
56657;SDS011;42530;52.240;19.354;2022-12-18T08:10:05;73.35;;;49.67;;
56657;SDS011;42530;52.240;19.354;2022-12-18T08:12:31;66.43;;;49.53;;
56657;SDS011;42530;52.240;19.354;2022-12-18T08:14:57;56.15;;;45.80;;
56657;SDS011;42530;52.240;19.354;2022-12-18T08:17:23;80.68;;;53.53;;
56657;SDS011;42530;52.240;19.354;2022-12-18T08:19:48;80.68;;;53.47;;
56657;SDS011;42530;52.240;19.354;2022-12-18T08:22:14;77.15;;;56.45;;
56657;SDS011;42530;52.240;19.354;2022-12-18T08:24:39;97.43;;;65.57;;
56657;SDS011;42530;52.240;19.354;2022-12-18T08:27:05;86.80;;;62.10;;
56657;SDS011;42530;52.240;19.354;2022-12-18T08:29:30;87.95;;;60.67;;
56657;SDS011;42530;52.240;19.354;2022-12-18T08:31:57;75.88;;;53.00;;
56657;SDS011;42530;52.240;19.354;2022-12-18T08:34:22;71.55;;;51.45;;
56657;SDS011;42530;52.240;19.354;2022-12-18T08:36:48;80.20;;;49.88;;
56657;SDS011;42530;52.240;19.354;2022-12-18T08:39:14;69.65;;;49.63;;
56657;SDS011;42530;52.240;19.354;2022-12-18T08:41:39;69.10;;;50.67;;
56657;SDS011;42530;52.240;19.354;2022-12-18T08:44:07;75.97;;;57.33;;
56657;SDS011;42530;52.240;19.354;2022-12-18T08:46:51;73.85;;;51.50;;
56657;SDS011;42530;52.240;19.354;2022-12-18T08:49:17;80.60;;;56.45;;
56657;SDS011;42530;52.240;19.354;2022-12-18T08:51:43;80.78;;;52.58;;
56657;SDS011;42530;52.240;19.354;2022-12-18T08:54:10;72.88;;;51.15;;
56657;SDS011;42530;52.240;19.354;2022-12-18T08:56:37;64.07;;;48.00;;
56657;SDS011;42530;52.240;19.354;2022-12-18T08:59:03;61.40;;;47.33;;
56657;SDS011;42530;52.240;19.354;2022-12-18T09:01:29;76.53;;;48.85;;
56657;SDS011;42530;52.240;19.354;2022-12-18T09:03:55;67.28;;;50.90;;
56657;SDS011;42530;52.240;19.354;2022-12-18T09:06:21;77.60;;;53.35;;
56657;SDS011;42530;52.240;19.354;2022-12-18T09:08:48;90.03;;;59.85;;
56657;SDS011;42530;52.240;19.354;2022-12-18T09:11:23;62.15;;;51.03;;
56657;SDS011;42530;52.240;19.354;2022-12-18T09:13:51;78.85;;;56.80;;
56657;SDS011;42530;52.240;19.354;2022-12-18T09:16:17;79.22;;;50.58;;
56657;SDS011;42530;52.240;19.354;2022-12-18T09:18:43;66.72;;;44.28;;
56657;SDS011;42530;52.240;19.354;2022-12-18T09:21:13;79.30;;;51.85;;
56657;SDS011;42530;52.240;19.354;2022-12-18T09:23:40;81.07;;;51.10;;
56657;SDS011;42530;52.240;19.354;2022-12-18T09:26:06;77.55;;;52.67;;
56657;SDS011;42530;52.240;19.354;2022-12-18T09:28:32;74.05;;;50.03;;
56657;SDS011;42530;52.240;19.354;2022-12-18T09:30:58;77.90;;;51.03;;
56657;SDS011;42530;52.240;19.354;2022-12-18T09:33:23;80.97;;;53.75;;
56657;SDS011;42530;52.240;19.354;2022-12-18T09:35:49;66.63;;;46.03;;
56657;SDS011;42530;52.240;19.354;2022-12-18T09:38:18;76.13;;;50.20;;
56657;SDS011;42530;52.240;19.354;2022-12-18T09:40:45;102.35;;;62.80;;
56657;SDS011;42530;52.240;19.354;2022-12-18T09:43:24;84.82;;;59.40;;
56657;SDS011;42530;52.240;19.354;2022-12-18T09:46:07;68.68;;;47.97;;
56657;SDS011;42530;52.240;19.354;2022-12-18T09:48:42;87.70;;;63.78;;
56657;SDS011;42530;52.240;19.354;2022-12-18T09:51:15;79.43;;;47.80;;
56657;SDS011;42530;52.240;19.354;2022-12-18T09:53:45;80.20;;;55.08;;
56657;SDS011;42530;52.240;19.354;2022-12-18T09:56:16;96.70;;;62.80;;
56657;SDS011;42530;52.240;19.354;2022-12-18T09:58:49;83.45;;;49.45;;
56657;SDS011;42530;52.240;19.354;2022-12-18T10:01:22;91.72;;;57.38;;
56657;SDS011;42530;52.240;19.354;2022-12-18T10:03:48;84.22;;;59.15;;
56657;SDS011;42530;52.240;19.354;2022-12-18T10:08:49;95.32;;;56.08;;
56657;SDS011;42530;52.240;19.354;2022-12-18T10:14:14;77.63;;;51.70;;
56657;SDS011;42530;52.240;19.354;2022-12-18T10:22:43;96.63;;;56.08;;
56657;SDS011;42530;52.240;19.354;2022-12-18T10:25:20;78.00;;;52.28;;
56657;SDS011;42530;52.240;19.354;2022-12-18T10:27:54;85.95;;;52.72;;
56657;SDS011;42530;52.240;19.354;2022-12-18T10:30:23;89.30;;;54.03;;
56657;SDS011;42530;52.240;19.354;2022-12-18T10:32:50;87.80;;;56.28;;
56657;SDS011;42530;52.240;19.354;2022-12-18T10:35:20;91.60;;;58.50;;
56657;SDS011;42530;52.240;19.354;2022-12-18T10:40:31;92.38;;;56.53;;
56657;SDS011;42530;52.240;19.354;2022-12-18T10:43:19;76.82;;;50.97;;
56657;SDS011;42530;52.240;19.354;2022-12-18T10:51:08;87.25;;;59.83;;
56657;SDS011;42530;52.240;19.354;2022-12-18T10:53:35;110.20;;;65.07;;
56657;SDS011;42530;52.240;19.354;2022-12-18T10:56:02;85.72;;;55.88;;
56657;SDS011;42530;52.240;19.354;2022-12-18T11:01:13;82.72;;;56.13;;
56657;SDS011;42530;52.240;19.354;2022-12-18T11:06:12;77.05;;;49.22;;
56657;SDS011;42530;52.240;19.354;2022-12-18T11:08:40;87.82;;;52.58;;
56657;SDS011;42530;52.240;19.354;2022-12-18T11:11:20;93.35;;;62.75;;
56657;SDS011;42530;52.240;19.354;2022-12-18T11:14:01;88.25;;;57.92;;
56657;SDS011;42530;52.240;19.354;2022-12-18T11:16:36;94.93;;;60.53;;
56657;SDS011;42530;52.240;19.354;2022-12-18T11:19:12;96.25;;;62.08;;
56657;SDS011;42530;52.240;19.354;2022-12-18T11:21:45;90.18;;;65.10;;
56657;SDS011;42530;52.240;19.354;2022-12-18T11:24:19;95.22;;;58.85;;
56657;SDS011;42530;52.240;19.354;2022-12-18T11:26:51;106.35;;;58.40;;
56657;SDS011;42530;52.240;19.354;2022-12-18T11:29:17;88.57;;;57.33;;
56657;SDS011;42530;52.240;19.354;2022-12-18T11:31:47;88.35;;;53.75;;
56657;SDS011;42530;52.240;19.354;2022-12-18T11:34:29;85.53;;;51.60;;
56657;SDS011;42530;52.240;19.354;2022-12-18T11:36:57;93.60;;;55.67;;
56657;SDS011;42530;52.240;19.354;2022-12-18T11:42:08;80.47;;;53.45;;
56657;SDS011;42530;52.240;19.354;2022-12-18T11:44:43;79.75;;;50.75;;
56657;SDS011;42530;52.240;19.354;2022-12-18T11:49:45;87.20;;;52.78;;
56657;SDS011;42530;52.240;19.354;2022-12-18T11:55:00;90.95;;;60.47;;
56657;SDS011;42530;52.240;19.354;2022-12-18T12:00:10;112.97;;;64.10;;
56657;SDS011;42530;52.240;19.354;2022-12-18T12:05:15;108.40;;;62.70;;
56657;SDS011;42530;52.240;19.354;2022-12-18T12:19:03;87.95;;;53.88;;
56657;SDS011;42530;52.240;19.354;2022-12-18T12:29:55;117.18;;;73.30;;
56657;SDS011;42530;52.240;19.354;2022-12-18T12:40:22;98.25;;;49.70;;
56657;SDS011;42530;52.240;19.354;2022-12-18T12:42:55;102.40;;;52.03;;
56657;SDS011;42530;52.240;19.354;2022-12-18T12:45:40;76.60;;;41.70;;
56657;SDS011;42530;52.240;19.354;2022-12-18T12:51:18;124.30;;;60.22;;
56657;SDS011;42530;52.240;19.354;2022-12-18T12:53:56;95.13;;;49.63;;
56657;SDS011;42530;52.240;19.354;2022-12-18T12:56:24;89.05;;;54.88;;
56657;SDS011;42530;52.240;19.354;2022-12-18T13:08:25;113.20;;;64.65;;
56657;SDS011;42530;52.240;19.354;2022-12-18T13:13:11;102.38;;;63.95;;
56657;SDS011;42530;52.240;19.354;2022-12-18T13:16:03;124.43;;;68.20;;
56657;SDS011;42530;52.240;19.354;2022-12-18T13:18:30;92.10;;;54.60;;
56657;SDS011;42530;52.240;19.354;2022-12-18T13:28:20;97.85;;;52.70;;
56657;SDS011;42530;52.240;19.354;2022-12-18T13:31:01;97.73;;;61.87;;
56657;SDS011;42530;52.240;19.354;2022-12-18T13:38:36;115.38;;;51.30;;
56657;SDS011;42530;52.240;19.354;2022-12-18T13:43:49;99.22;;;52.13;;
56657;SDS011;42530;52.240;19.354;2022-12-18T13:46:21;102.88;;;54.22;;
56657;SDS011;42530;52.240;19.354;2022-12-18T13:48:55;85.55;;;49.80;;
56657;SDS011;42530;52.240;19.354;2022-12-18T13:51:21;98.15;;;55.38;;
56657;SDS011;42530;52.240;19.354;2022-12-18T13:53:53;100.57;;;54.88;;
56657;SDS011;42530;52.240;19.354;2022-12-18T13:56:29;100.95;;;52.88;;
56657;SDS011;42530;52.240;19.354;2022-12-18T14:04:45;100.50;;;64.45;;
56657;SDS011;42530;52.240;19.354;2022-12-18T14:07:12;107.97;;;66.78;;
56657;SDS011;42530;52.240;19.354;2022-12-18T14:09:44;90.05;;;54.28;;
56657;SDS011;42530;52.240;19.354;2022-12-18T14:12:17;83.32;;;58.42;;
56657;SDS011;42530;52.240;19.354;2022-12-18T14:15:06;106.75;;;61.10;;
56657;SDS011;42530;52.240;19.354;2022-12-18T14:17:44;108.05;;;61.22;;
56657;SDS011;42530;52.240;19.354;2022-12-18T14:20:14;105.95;;;67.97;;
56657;SDS011;42530;52.240;19.354;2022-12-18T14:22:42;100.15;;;69.43;;
56657;SDS011;42530;52.240;19.354;2022-12-18T14:25:14;105.45;;;64.13;;
56657;SDS011;42530;52.240;19.354;2022-12-18T14:27:47;116.18;;;76.10;;
56657;SDS011;42530;52.240;19.354;2022-12-18T14:33:00;106.38;;;66.90;;
56657;SDS011;42530;52.240;19.354;2022-12-18T14:35:32;94.38;;;52.38;;
56657;SDS011;42530;52.240;19.354;2022-12-18T14:41:11;119.85;;;63.20;;
56657;SDS011;42530;52.240;19.354;2022-12-18T14:43:39;119.50;;;59.00;;
56657;SDS011;42530;52.240;19.354;2022-12-18T14:48:55;81.32;;;51.75;;
56657;SDS011;42530;52.240;19.354;2022-12-18T14:51:22;109.95;;;47.55;;
56657;SDS011;42530;52.240;19.354;2022-12-18T14:54:13;99.10;;;49.42;;
56657;SDS011;42530;52.240;19.354;2022-12-18T14:56:43;89.47;;;53.35;;
56657;SDS011;42530;52.240;19.354;2022-12-18T14:59:21;91.70;;;49.75;;
56657;SDS011;42530;52.240;19.354;2022-12-18T15:01:54;121.90;;;58.03;;
56657;SDS011;42530;52.240;19.354;2022-12-18T15:04:30;86.50;;;54.15;;
56657;SDS011;42530;52.240;19.354;2022-12-18T15:07:11;89.78;;;52.17;;
56657;SDS011;42530;52.240;19.354;2022-12-18T15:09:41;94.50;;;59.03;;
56657;SDS011;42530;52.240;19.354;2022-12-18T15:12:22;95.78;;;58.55;;
56657;SDS011;42530;52.240;19.354;2022-12-18T15:14:58;131.27;;;54.90;;
56657;SDS011;42530;52.240;19.354;2022-12-18T15:17:23;155.30;;;60.47;;
56657;SDS011;42530;52.240;19.354;2022-12-18T15:19:50;106.65;;;63.88;;
56657;SDS011;42530;52.240;19.354;2022-12-18T15:24:50;99.22;;;54.20;;
56657;SDS011;42530;52.240;19.354;2022-12-18T15:27:24;149.52;;;61.35;;
56657;SDS011;42530;52.240;19.354;2022-12-18T15:32:33;69.85;;;47.80;;
56657;SDS011;42530;52.240;19.354;2022-12-18T15:35:41;86.82;;;52.65;;
56657;SDS011;42530;52.240;19.354;2022-12-18T15:37:50;97.22;;;57.13;;
56657;SDS011;42530;52.240;19.354;2022-12-18T15:40:18;82.88;;;54.63;;
56657;SDS011;42530;52.240;19.354;2022-12-18T15:42:45;103.80;;;64.38;;
56657;SDS011;42530;52.240;19.354;2022-12-18T15:45:31;100.57;;;48.10;;
56657;SDS011;42530;52.240;19.354;2022-12-18T15:47:57;97.22;;;53.42;;
56657;SDS011;42530;52.240;19.354;2022-12-18T15:50:23;94.45;;;54.25;;
56657;SDS011;42530;52.240;19.354;2022-12-18T15:52:49;102.13;;;67.47;;
56657;SDS011;42530;52.240;19.354;2022-12-18T15:55:18;101.38;;;58.65;;
56657;SDS011;42530;52.240;19.354;2022-12-18T15:58:07;172.68;;;69.90;;
56657;SDS011;42530;52.240;19.354;2022-12-18T16:00:34;87.45;;;53.75;;
56657;SDS011;42530;52.240;19.354;2022-12-18T16:03:03;115.45;;;58.60;;
56657;SDS011;42530;52.240;19.354;2022-12-18T16:05:29;93.10;;;57.60;;
56657;SDS011;42530;52.240;19.354;2022-12-18T16:07:56;95.20;;;59.05;;
56657;SDS011;42530;52.240;19.354;2022-12-18T16:10:21;95.68;;;61.97;;
56657;SDS011;42530;52.240;19.354;2022-12-18T16:12:47;99.53;;;60.03;;
56657;SDS011;42530;52.240;19.354;2022-12-18T16:15:13;111.13;;;60.47;;
56657;SDS011;42530;52.240;19.354;2022-12-18T16:17:41;94.88;;;57.40;;
56657;SDS011;42530;52.240;19.354;2022-12-18T16:20:11;94.80;;;60.70;;
56657;SDS011;42530;52.240;19.354;2022-12-18T16:22:41;115.55;;;68.50;;
56657;SDS011;42530;52.240;19.354;2022-12-18T16:25:20;117.95;;;72.65;;
56657;SDS011;42530;52.240;19.354;2022-12-18T16:27:47;96.72;;;64.00;;
56657;SDS011;42530;52.240;19.354;2022-12-18T16:30:13;99.55;;;60.53;;
56657;SDS011;42530;52.240;19.354;2022-12-18T16:32:43;129.45;;;65.78;;
56657;SDS011;42530;52.240;19.354;2022-12-18T16:35:10;105.80;;;66.93;;
56657;SDS011;42530;52.240;19.354;2022-12-18T16:37:36;123.43;;;74.45;;
56657;SDS011;42530;52.240;19.354;2022-12-18T16:40:02;96.57;;;55.92;;
56657;SDS011;42530;52.240;19.354;2022-12-18T16:42:28;101.13;;;63.08;;
56657;SDS011;42530;52.240;19.354;2022-12-18T16:44:53;103.18;;;54.92;;